createdAt,value
2019-03-24T00:01:43.458Z,8.90
2019-03-24T00:04:12.111Z,8.81
2019-03-24T00:06:40.740Z,8.61
2019-03-24T00:09:09.374Z,8.67
2019-03-24T00:11:37.943Z,8.66
2019-03-24T00:14:06.587Z,8.60
2019-03-24T00:16:35.213Z,8.58
2019-03-24T00:19:03.859Z,8.55
2019-03-24T00:21:32.472Z,8.48
2019-03-24T00:24:01.044Z,8.58
2019-03-24T00:26:29.675Z,8.69
2019-03-24T00:28:58.281Z,8.61
2019-03-24T00:31:26.846Z,8.55
2019-03-24T00:33:55.444Z,8.44
2019-03-24T00:36:24.085Z,8.32
2019-03-24T00:38:52.725Z,8.27
2019-03-24T00:41:21.359Z,8.34
2019-03-24T00:43:49.967Z,8.18
2019-03-24T00:46:18.596Z,8.09
2019-03-24T00:48:47.235Z,7.91
2019-03-24T00:51:15.870Z,7.90
2019-03-24T00:53:44.470Z,7.85
2019-03-24T00:56:13.108Z,7.67
2019-03-24T00:58:41.719Z,7.56
2019-03-24T01:01:10.357Z,7.79
2019-03-24T01:03:38.965Z,7.50
2019-03-24T01:06:07.597Z,7.46
2019-03-24T01:08:36.156Z,7.51
2019-03-24T01:11:04.796Z,7.34
2019-03-24T01:13:33.475Z,7.27
2019-03-24T01:16:02.140Z,7.11
2019-03-24T01:18:30.625Z,7.06
2019-03-24T01:20:59.301Z,7.05
2019-03-24T01:23:27.974Z,6.94
2019-03-24T01:25:56.603Z,6.61
2019-03-24T01:28:25.244Z,6.39
2019-03-24T01:30:53.873Z,6.67
2019-03-24T01:33:22.478Z,6.62
2019-03-24T01:35:51.051Z,6.50
2019-03-24T01:38:19.617Z,6.37
2019-03-24T01:40:48.219Z,6.22
2019-03-24T01:43:16.788Z,6.27
2019-03-24T01:45:45.450Z,6.31
2019-03-24T01:48:13.950Z,6.29
2019-03-24T01:50:42.513Z,6.28
2019-03-24T01:53:11.146Z,6.11
2019-03-24T01:55:39.714Z,6.08
2019-03-24T01:58:08.274Z,6.05
2019-03-24T02:00:36.915Z,5.88
2019-03-24T02:03:05.565Z,5.76
2019-03-24T02:05:34.244Z,5.85
2019-03-24T02:08:02.917Z,6.04
2019-03-24T02:10:31.407Z,6.05
2019-03-24T02:12:59.979Z,5.90
2019-03-24T02:15:28.617Z,5.83
2019-03-24T02:17:57.259Z,5.63
2019-03-24T02:20:25.908Z,5.86
2019-03-24T02:22:54.590Z,6.01
2019-03-24T02:25:23.166Z,5.98
2019-03-24T02:27:51.739Z,5.89
2019-03-24T02:30:20.378Z,5.84
2019-03-24T02:32:48.989Z,5.71
2019-03-24T02:35:17.476Z,5.26
2019-03-24T02:37:46.102Z,5.08
2019-03-24T02:40:14.855Z,4.92
2019-03-24T02:42:43.388Z,4.93
2019-03-24T02:45:12.230Z,4.94
2019-03-24T02:47:40.872Z,5.05
2019-03-24T02:50:10.613Z,5.15
2019-03-24T02:52:40.197Z,5.04
2019-03-24T02:55:08.976Z,4.87
2019-03-24T02:57:38.944Z,4.67
2019-03-24T03:00:09.076Z,4.49
2019-03-24T03:02:37.773Z,4.29
2019-03-24T03:05:10.390Z,4.15
2019-03-24T03:07:39.027Z,4.04
2019-03-24T03:10:08.929Z,3.96
2019-03-24T03:12:37.545Z,3.89
2019-03-24T03:15:13.207Z,3.80
2019-03-24T03:17:41.832Z,3.70
2019-03-24T03:20:12.151Z,3.67
2019-03-24T03:22:40.652Z,3.68
2019-03-24T03:25:09.701Z,3.68
2019-03-24T03:27:38.326Z,3.67
2019-03-24T03:30:08.397Z,3.65
2019-03-24T03:32:37.041Z,3.59
2019-03-24T03:35:07.880Z,3.64
2019-03-24T03:37:36.631Z,3.73
2019-03-24T03:40:07.282Z,3.87
2019-03-24T03:42:36.176Z,3.81
2019-03-24T03:45:05.910Z,3.69
2019-03-24T03:47:34.454Z,3.75
2019-03-24T03:50:03.023Z,3.67
2019-03-24T03:52:31.612Z,3.66
2019-03-24T03:55:00.109Z,3.72
2019-03-24T03:57:28.666Z,3.78
2019-03-24T03:59:57.234Z,3.80
2019-03-24T04:02:26.401Z,3.81
2019-03-24T04:04:55.030Z,3.71
2019-03-24T04:07:23.653Z,3.70
2019-03-24T04:09:52.216Z,3.74
2019-03-24T04:12:20.704Z,3.72
2019-03-24T04:14:49.247Z,3.72
2019-03-24T04:17:17.806Z,3.76
2019-03-24T04:19:46.455Z,3.73
2019-03-24T04:22:15.100Z,3.68
2019-03-24T04:24:43.734Z,3.82
2019-03-24T04:27:12.424Z,3.87
2019-03-24T04:29:40.993Z,3.96
2019-03-24T04:32:09.626Z,4.14
2019-03-24T04:34:38.306Z,4.26
2019-03-24T04:37:06.994Z,4.36
2019-03-24T04:39:35.624Z,4.35
2019-03-24T04:42:04.243Z,4.28
2019-03-24T04:44:32.729Z,4.34
2019-03-24T04:47:01.406Z,4.40
2019-03-24T04:49:29.964Z,4.41
2019-03-24T04:51:58.570Z,4.41
2019-03-24T04:54:28.558Z,4.37
2019-03-24T04:56:59.955Z,4.39
2019-03-24T04:59:28.447Z,4.33
2019-03-24T05:01:57.187Z,4.31
2019-03-24T05:04:25.829Z,4.31
2019-03-24T05:06:54.657Z,4.36
2019-03-24T05:09:24.246Z,4.42
2019-03-24T05:11:52.836Z,4.53
2019-03-24T05:14:21.344Z,4.59
2019-03-24T05:16:49.922Z,4.63
2019-03-24T05:19:18.494Z,4.79
2019-03-24T05:21:47.070Z,4.91
2019-03-24T05:24:15.604Z,5.06
2019-03-24T05:26:44.140Z,5.11
2019-03-24T05:29:12.771Z,5.22
2019-03-24T05:31:41.447Z,5.32
2019-03-24T05:34:10.022Z,5.44
2019-03-24T05:36:38.658Z,5.50
2019-03-24T05:39:07.702Z,5.54
2019-03-24T05:41:36.328Z,5.55
2019-03-24T05:44:04.931Z,5.56
2019-03-24T05:46:33.616Z,5.62
2019-03-24T05:49:02.305Z,5.70
2019-03-24T05:51:30.915Z,5.85
2019-03-24T05:53:59.575Z,6.08
2019-03-24T05:56:28.017Z,6.22
2019-03-24T05:58:56.523Z,6.38
2019-03-24T06:01:25.182Z,6.70
2019-03-24T06:03:53.755Z,6.93
2019-03-24T06:06:22.394Z,7.23
2019-03-24T06:08:50.929Z,7.47
2019-03-24T06:11:19.493Z,7.64
2019-03-24T06:13:48.097Z,7.79
2019-03-24T06:16:16.739Z,8.09
2019-03-24T06:18:45.238Z,8.40
2019-03-24T06:21:13.811Z,8.61
2019-03-24T06:23:42.388Z,8.78
2019-03-24T06:26:11.011Z,9.06
2019-03-24T06:28:39.547Z,9.26
2019-03-24T06:31:08.106Z,9.55
2019-03-24T06:33:36.609Z,9.85
2019-03-24T06:36:05.242Z,9.94
2019-03-24T06:38:33.933Z,10.18
2019-03-24T06:41:02.433Z,10.61
2019-03-24T06:43:31.114Z,11.32
2019-03-24T06:45:59.682Z,12.18
2019-03-24T06:48:28.285Z,12.75
2019-03-24T06:50:56.897Z,13.65
2019-03-24T06:53:25.440Z,14.39
2019-03-24T06:55:54.037Z,14.88
2019-03-24T06:58:23.504Z,15.17
2019-03-24T07:00:52.271Z,15.42
2019-03-24T07:03:20.831Z,15.22
2019-03-24T07:05:49.478Z,15.49
2019-03-24T07:08:18.048Z,16.67
2019-03-24T07:10:46.611Z,17.82
2019-03-24T07:13:15.187Z,17.95
2019-03-24T07:15:43.757Z,17.59
2019-03-24T07:18:12.420Z,17.93
2019-03-24T07:20:40.980Z,18.53
2019-03-24T07:23:09.589Z,18.83
2019-03-24T07:25:38.089Z,18.62
2019-03-24T07:28:06.718Z,19.58
2019-03-24T07:30:35.393Z,20.67
2019-03-24T07:33:03.955Z,20.42
2019-03-24T07:35:32.453Z,20.30
2019-03-24T07:38:00.990Z,19.88
2019-03-24T07:40:29.538Z,20.36
2019-03-24T07:42:58.144Z,21.25
2019-03-24T07:45:29.723Z,20.10
2019-03-24T07:47:58.221Z,20.42
2019-03-24T07:50:26.718Z,21.14
2019-03-24T07:52:58.091Z,21.31
2019-03-24T07:55:26.667Z,21.14
2019-03-24T07:57:55.225Z,21.61
2019-03-24T08:00:29.653Z,22.15
2019-03-24T08:03:01.327Z,21.45
2019-03-24T08:05:32.883Z,21.21
2019-03-24T08:08:01.492Z,20.92
2019-03-24T08:10:30.056Z,20.81
2019-03-24T08:12:58.599Z,21.73
2019-03-24T08:15:27.171Z,20.77
2019-03-24T08:17:55.825Z,21.04
2019-03-24T08:20:24.326Z,20.18
2019-03-24T08:22:52.969Z,20.49
2019-03-24T08:25:21.570Z,21.37
2019-03-24T08:27:50.197Z,21.55
2019-03-24T08:30:28.867Z,22.54
2019-03-24T08:33:00.567Z,23.53
2019-03-24T08:35:29.175Z,22.31
2019-03-24T08:37:57.839Z,22.39
2019-03-24T08:40:26.399Z,23.10
2019-03-24T08:42:55.090Z,22.72
2019-03-24T08:45:30.413Z,22.94
2019-03-24T08:47:59.187Z,23.94
2019-03-24T08:50:27.822Z,23.49
2019-03-24T08:52:56.510Z,23.43
2019-03-24T08:55:25.170Z,24.77
2019-03-24T08:57:56.491Z,24.44
2019-03-24T09:00:30.602Z,24.96
2019-03-24T09:02:55.625Z,25.16
2019-03-24T09:05:24.305Z,26.42
2019-03-24T09:07:52.925Z,27.49
2019-03-24T09:10:24.520Z,27.20
2019-03-24T09:12:53.080Z,27.52
2019-03-24T09:15:21.756Z,27.29
2019-03-24T09:17:50.323Z,28.21
2019-03-24T09:20:19.010Z,28.38
2019-03-24T09:22:47.570Z,27.85
2019-03-24T09:25:19.663Z,27.51
2019-03-24T09:27:51.244Z,27.55
2019-03-24T09:30:33.301Z,27.94
2019-03-24T09:33:01.948Z,28.23
2019-03-24T09:35:30.518Z,29.70
2019-03-24T09:37:59.134Z,29.56
2019-03-24T09:40:29.210Z,29.64
2019-03-24T09:42:59.583Z,29.37
2019-03-24T09:45:28.814Z,30.25
2019-03-24T09:47:57.493Z,29.25
2019-03-24T09:50:26.049Z,28.87
2019-03-24T09:52:54.608Z,28.61
2019-03-24T09:55:23.237Z,28.11
2019-03-24T09:57:51.842Z,29.03
2019-03-24T10:00:20.514Z,29.73
2019-03-24T10:02:49.159Z,30.03
2019-03-24T10:05:17.791Z,29.27
2019-03-24T10:07:46.453Z,29.28
2019-03-24T10:10:15.178Z,29.36
2019-03-24T10:12:43.777Z,29.03
2019-03-24T10:15:13.951Z,29.22
2019-03-24T10:17:42.674Z,29.44
2019-03-24T10:20:11.304Z,29.19
2019-03-24T10:22:39.975Z,29.72
2019-03-24T10:25:10.378Z,30.65
2019-03-24T10:27:38.927Z,31.16
2019-03-24T10:30:09.509Z,32.32
2019-03-24T10:32:38.067Z,31.67
2019-03-24T10:35:08.006Z,32.14
2019-03-24T10:37:36.668Z,32.97
2019-03-24T10:40:06.506Z,32.48
2019-03-24T10:42:35.174Z,33.19
2019-03-24T10:45:04.597Z,33.85
2019-03-24T10:47:33.205Z,33.00
2019-03-24T10:50:01.804Z,33.21
2019-03-24T10:52:30.452Z,33.96
2019-03-24T10:54:59.007Z,32.64
2019-03-24T10:57:27.636Z,32.76
2019-03-24T10:59:56.259Z,31.79
2019-03-24T11:02:24.825Z,32.26
2019-03-24T11:04:53.422Z,33.20
2019-03-24T11:07:21.905Z,34.23
2019-03-24T11:09:50.574Z,32.29
2019-03-24T11:12:19.207Z,32.52
2019-03-24T11:14:47.810Z,31.56
2019-03-24T11:17:16.482Z,31.48
2019-03-24T11:19:45.033Z,31.22
2019-03-24T11:22:13.669Z,30.86
2019-03-24T11:24:42.200Z,32.71
2019-03-24T11:27:10.832Z,34.14
2019-03-24T11:29:39.492Z,34.08
2019-03-24T11:32:07.980Z,33.52
2019-03-24T11:34:36.548Z,33.75
2019-03-24T11:37:08.133Z,34.78
2019-03-24T11:39:36.615Z,35.41
2019-03-24T11:42:08.229Z,33.77
2019-03-24T11:44:36.788Z,35.38
2019-03-24T11:47:05.538Z,33.54
2019-03-24T11:49:34.171Z,33.41
2019-03-24T11:52:02.738Z,34.86
2019-03-24T11:54:31.332Z,33.03
2019-03-24T11:56:59.976Z,33.26
2019-03-24T11:59:28.535Z,31.78
2019-03-24T12:01:57.172Z,32.95
2019-03-24T12:04:25.804Z,33.45
2019-03-24T12:06:54.401Z,34.17
2019-03-24T12:09:23.007Z,35.97
2019-03-24T12:11:51.562Z,35.54
2019-03-24T12:14:20.229Z,34.26
2019-03-24T12:16:48.862Z,34.75
2019-03-24T12:19:17.496Z,34.88
2019-03-24T12:21:46.131Z,35.94
2019-03-24T12:24:14.626Z,37.37
2019-03-24T12:26:43.244Z,37.95
2019-03-24T12:29:11.849Z,35.75
2019-03-24T12:31:40.462Z,36.31
2019-03-24T12:34:09.093Z,37.21
2019-03-24T12:36:37.720Z,35.92
2019-03-24T12:39:07.144Z,38.43
2019-03-24T12:41:35.826Z,37.99
2019-03-24T12:44:04.459Z,36.34
2019-03-24T12:46:33.121Z,35.72
2019-03-24T12:49:01.600Z,36.36
2019-03-24T12:51:30.273Z,36.86
2019-03-24T12:53:58.895Z,37.47
2019-03-24T12:56:27.420Z,35.32
2019-03-24T12:58:56.100Z,36.14
2019-03-24T13:01:24.731Z,36.71
2019-03-24T13:03:53.334Z,36.33
2019-03-24T13:06:21.877Z,36.54
2019-03-24T13:08:50.363Z,37.43
2019-03-24T13:11:18.956Z,38.30
2019-03-24T13:13:47.572Z,38.59
2019-03-24T13:16:16.169Z,35.90
2019-03-24T13:18:44.643Z,36.64
2019-03-24T13:21:13.285Z,37.32
2019-03-24T13:23:41.920Z,36.98
2019-03-24T13:26:10.463Z,36.47
2019-03-24T13:28:38.997Z,36.58
2019-03-24T13:31:07.664Z,36.78
2019-03-24T13:33:36.277Z,35.16
2019-03-24T13:36:09.710Z,33.69
2019-03-24T13:38:38.270Z,33.48
2019-03-24T13:41:06.942Z,34.82
2019-03-24T13:43:35.496Z,34.48
2019-03-24T13:46:04.124Z,36.37
2019-03-24T13:48:32.684Z,36.44
2019-03-24T13:51:01.334Z,36.59
2019-03-24T13:53:29.871Z,36.49
2019-03-24T13:55:58.536Z,37.00
2019-03-24T13:58:27.094Z,34.83
2019-03-24T14:00:55.727Z,34.78
2019-03-24T14:03:24.294Z,34.66
2019-03-24T14:05:52.963Z,33.93
2019-03-24T14:08:21.511Z,33.67
2019-03-24T14:10:50.186Z,33.02
2019-03-24T14:13:18.720Z,33.49
2019-03-24T14:15:47.350Z,32.46
2019-03-24T14:18:15.912Z,31.29
2019-03-24T14:20:44.490Z,30.42
2019-03-24T14:23:13.088Z,30.11
2019-03-24T14:25:42.929Z,30.08
2019-03-24T14:28:11.435Z,30.34
2019-03-24T14:30:48.038Z,29.33
2019-03-24T14:33:16.772Z,29.35
2019-03-24T14:35:45.400Z,29.61
2019-03-24T14:38:16.989Z,29.79
2019-03-24T14:40:45.589Z,29.16
2019-03-24T14:43:14.170Z,28.77
2019-03-24T14:45:42.802Z,29.78
2019-03-24T14:48:11.369Z,30.30
2019-03-24T14:50:39.985Z,28.99
2019-03-24T14:53:08.607Z,30.08
2019-03-24T14:55:37.275Z,30.12
2019-03-24T14:58:05.942Z,30.71
2019-03-24T15:00:36.469Z,30.36
2019-03-24T15:03:05.631Z,29.82
2019-03-24T15:05:36.928Z,28.54
2019-03-24T15:08:06.267Z,27.53
2019-03-24T15:10:34.900Z,27.99
2019-03-24T15:13:03.624Z,27.42
2019-03-24T15:15:32.289Z,26.53
2019-03-24T15:18:00.916Z,26.44
2019-03-24T15:20:29.516Z,25.16
2019-03-24T15:22:58.144Z,25.45
2019-03-24T15:25:26.810Z,24.97
2019-03-24T15:27:55.436Z,25.26
2019-03-24T15:30:24.111Z,24.73
2019-03-24T15:32:55.277Z,24.47
2019-03-24T15:35:23.851Z,24.31
2019-03-24T15:37:52.400Z,24.55
2019-03-24T15:40:21.032Z,24.67
2019-03-24T15:42:49.660Z,24.35
2019-03-24T15:45:18.293Z,23.77
2019-03-24T15:47:46.771Z,23.79
2019-03-24T15:50:15.462Z,23.00
2019-03-24T15:52:44.083Z,22.92
2019-03-24T15:55:12.815Z,23.06
2019-03-24T15:57:41.447Z,22.94
2019-03-24T16:00:11.246Z,22.63
2019-03-24T16:02:39.886Z,22.15
2019-03-24T16:05:08.638Z,21.81
2019-03-24T16:07:37.266Z,21.83
2019-03-24T16:10:08.088Z,21.92
2019-03-24T16:12:36.772Z,21.91
2019-03-24T16:15:08.487Z,21.74
2019-03-24T16:17:37.122Z,21.41
2019-03-24T16:20:08.761Z,21.11
2019-03-24T16:22:37.386Z,20.09
2019-03-24T16:25:07.618Z,19.62
2019-03-24T16:27:36.180Z,18.90
2019-03-24T16:30:06.304Z,18.17
2019-03-24T16:32:34.811Z,17.81
2019-03-24T16:35:03.779Z,17.39
2019-03-24T16:37:32.265Z,17.10
2019-03-24T16:40:00.934Z,16.64
2019-03-24T16:42:29.558Z,16.51
2019-03-24T16:44:58.084Z,16.27
2019-03-24T16:47:26.719Z,15.98
2019-03-24T16:49:55.224Z,15.85
2019-03-24T16:52:23.886Z,15.59
2019-03-24T16:54:52.439Z,15.17
2019-03-24T16:57:24.275Z,15.17
2019-03-24T16:59:52.765Z,14.94
2019-03-24T17:02:21.385Z,14.77
2019-03-24T17:04:49.991Z,14.58
2019-03-24T17:07:18.620Z,14.34
2019-03-24T17:09:47.298Z,14.15
2019-03-24T17:12:15.934Z,14.01
2019-03-24T17:14:44.579Z,13.92
2019-03-24T17:17:13.212Z,13.80
2019-03-24T17:19:41.899Z,13.72
2019-03-24T17:22:10.524Z,13.62
2019-03-24T17:24:39.126Z,13.52
2019-03-24T17:27:07.753Z,13.43
2019-03-24T17:29:36.390Z,13.42
2019-03-24T17:32:05.021Z,13.32
2019-03-24T17:34:33.650Z,13.26
2019-03-24T17:37:02.325Z,13.23
2019-03-24T17:39:30.956Z,13.15
2019-03-24T17:42:02.629Z,13.09
2019-03-24T17:44:31.266Z,13.01
2019-03-24T17:47:02.596Z,12.91
2019-03-24T17:49:31.226Z,12.85
2019-03-24T17:52:01.070Z,12.73
2019-03-24T17:54:29.772Z,12.59
2019-03-24T17:56:58.411Z,12.53
2019-03-24T17:59:29.835Z,12.43
2019-03-24T18:01:58.565Z,12.55
2019-03-24T18:04:27.198Z,12.52
2019-03-24T18:06:55.844Z,12.44
2019-03-24T18:09:24.518Z,12.38
2019-03-24T18:11:53.141Z,12.29
2019-03-24T18:14:21.818Z,12.17
2019-03-24T18:16:50.450Z,11.87
2019-03-24T18:19:19.125Z,11.99
2019-03-24T18:21:47.754Z,12.06
2019-03-24T18:24:16.432Z,12.05
2019-03-24T18:26:45.164Z,11.75
2019-03-24T18:29:13.795Z,11.54
2019-03-24T18:31:42.425Z,11.43
2019-03-24T18:34:11.073Z,11.26
2019-03-24T18:36:39.706Z,11.23
2019-03-24T18:39:09.089Z,11.16
2019-03-24T18:41:37.724Z,10.98
2019-03-24T18:44:06.397Z,10.80
2019-03-24T18:46:35.043Z,10.58
2019-03-24T18:49:03.785Z,10.60
2019-03-24T18:51:33.926Z,10.43
2019-03-24T18:54:02.554Z,10.51
2019-03-24T18:56:31.221Z,10.45
2019-03-24T18:58:59.856Z,10.51
2019-03-24T19:01:28.496Z,10.31
2019-03-24T19:03:57.135Z,10.20
2019-03-24T19:06:25.768Z,10.18
2019-03-24T19:08:54.442Z,10.22
2019-03-24T19:11:23.170Z,10.22
2019-03-24T19:13:51.809Z,10.29
2019-03-24T19:16:20.487Z,10.17
2019-03-24T19:18:49.123Z,10.05
2019-03-24T19:21:17.753Z,10.09
2019-03-24T19:23:49.110Z,10.03
2019-03-24T19:26:17.751Z,10.14
2019-03-24T19:28:46.425Z,10.16
2019-03-24T19:31:15.052Z,9.98
2019-03-24T19:33:43.724Z,9.80
2019-03-24T19:36:13.796Z,9.41
2019-03-24T19:38:45.308Z,9.35
2019-03-24T19:41:13.938Z,9.52
2019-03-24T19:43:42.570Z,9.46
2019-03-24T19:46:11.209Z,9.53
2019-03-24T19:48:39.836Z,9.44
2019-03-24T19:51:08.519Z,9.26
2019-03-24T19:53:37.141Z,9.11
2019-03-24T19:56:05.815Z,8.92
2019-03-24T19:58:34.444Z,8.81
2019-03-24T20:01:05.803Z,9.05
2019-03-24T20:03:34.494Z,9.00
2019-03-24T20:06:03.237Z,8.86
2019-03-24T20:08:31.905Z,8.52
2019-03-24T20:11:01.847Z,8.16
2019-03-24T20:13:30.482Z,8.09
2019-03-24T20:15:59.123Z,8.05
2019-03-24T20:18:27.750Z,8.21
2019-03-24T20:20:56.429Z,8.21
2019-03-24T20:23:25.109Z,7.92
2019-03-24T20:25:53.670Z,7.61
2019-03-24T20:28:22.205Z,7.53
2019-03-24T20:30:50.905Z,7.57
2019-03-24T20:33:19.656Z,7.65
2019-03-24T20:35:48.289Z,7.71
2019-03-24T20:38:16.963Z,7.54
2019-03-24T20:40:45.700Z,7.47
2019-03-24T20:43:14.322Z,7.13
2019-03-24T20:45:42.952Z,7.23
2019-03-24T20:48:11.594Z,7.32
2019-03-24T20:50:40.206Z,7.26
2019-03-24T20:53:17.984Z,7.14
2019-03-24T20:55:39.216Z,6.99
2019-03-24T20:58:07.849Z,6.92
2019-03-24T21:00:37.566Z,6.74
2019-03-24T21:03:07.602Z,6.64
2019-03-24T21:05:36.158Z,6.35
2019-03-24T21:08:04.898Z,6.44
2019-03-24T21:10:33.541Z,6.43
2019-03-24T21:13:02.085Z,6.19
2019-03-24T21:15:30.689Z,6.16
2019-03-24T21:17:59.320Z,6.18
2019-03-24T21:20:27.993Z,6.08
2019-03-24T21:22:56.552Z,6.00
2019-03-24T21:25:25.190Z,5.75
2019-03-24T21:27:53.743Z,5.72
2019-03-24T21:30:33.503Z,5.63
2019-03-24T21:33:02.338Z,5.60
2019-03-24T21:35:30.961Z,5.25
2019-03-24T21:37:59.566Z,5.05
2019-03-24T21:40:28.130Z,5.11
2019-03-24T21:42:56.732Z,5.07
2019-03-24T21:45:28.193Z,5.16
2019-03-24T21:47:56.817Z,5.22
2019-03-24T21:50:25.387Z,5.00
2019-03-24T21:52:54.075Z,4.89
2019-03-24T21:55:22.627Z,4.96
2019-03-24T21:57:57.451Z,5.31
2019-03-24T22:00:30.430Z,5.42
2019-03-24T22:02:58.984Z,5.19
2019-03-24T22:05:27.544Z,5.40
2019-03-24T22:07:56.185Z,5.41
2019-03-24T22:10:24.789Z,5.48
2019-03-24T22:12:53.427Z,5.46
2019-03-24T22:15:22.027Z,5.35
2019-03-24T22:17:50.586Z,5.44
2019-03-24T22:20:19.160Z,5.55
2019-03-24T22:22:47.761Z,5.51
2019-03-24T22:25:16.392Z,5.49
2019-03-24T22:27:45.069Z,5.46
2019-03-24T22:30:14.503Z,5.39
2019-03-24T22:32:43.075Z,5.36
2019-03-24T22:35:11.749Z,5.29
2019-03-24T22:37:43.297Z,5.10
2019-03-24T22:40:12.036Z,4.99
2019-03-24T22:42:40.663Z,4.85
2019-03-24T22:45:10.036Z,4.73
2019-03-24T22:47:41.333Z,4.85
2019-03-24T22:50:10.164Z,4.73
2019-03-24T22:52:38.841Z,4.65
2019-03-24T22:55:08.921Z,4.58
2019-03-24T22:57:37.485Z,4.52
2019-03-24T23:00:15.046Z,4.69
2019-03-24T23:02:44.047Z,4.70
2019-03-24T23:05:12.828Z,4.50
2019-03-24T23:07:41.392Z,4.44
2019-03-24T23:10:10.127Z,4.33
2019-03-24T23:12:38.683Z,4.73
2019-03-24T23:15:07.660Z,4.62
2019-03-24T23:17:36.394Z,4.31
2019-03-24T23:20:06.936Z,4.23
2019-03-24T23:22:35.541Z,4.33
2019-03-24T23:25:06.082Z,4.47
2019-03-24T23:27:34.750Z,4.53
2019-03-24T23:30:03.776Z,4.63
2019-03-24T23:32:32.457Z,4.79
2019-03-24T23:35:01.018Z,4.85
2019-03-24T23:37:29.573Z,4.95
2019-03-24T23:39:58.074Z,4.73
2019-03-24T23:42:26.751Z,4.62
2019-03-24T23:44:55.389Z,4.73
2019-03-24T23:47:23.937Z,4.94
2019-03-24T23:49:52.609Z,4.98
2019-03-24T23:52:21.234Z,5.06
2019-03-24T23:54:49.916Z,5.01
2019-03-24T23:57:18.478Z,4.90
2019-03-24T23:59:47.042Z,4.98
